sensor_id;sensor_type;location;lat;lon;timestamp;temperature;humidity
1614;DHT22;800;48.824;9.346;2022-11-21T00:00:46;9.80;64.80
1614;DHT22;800;48.824;9.346;2022-11-21T00:03:12;10.00;63.60
1614;DHT22;800;48.824;9.346;2022-11-21T00:05:43;9.90;65.00
1614;DHT22;800;48.824;9.346;2022-11-21T00:08:10;9.80;65.50
1614;DHT22;800;48.824;9.346;2022-11-21T00:10:37;9.50;66.20
1614;DHT22;800;48.824;9.346;2022-11-21T00:13:03;9.30;67.50
1614;DHT22;800;48.824;9.346;2022-11-21T00:15:29;9.30;68.30
1614;DHT22;800;48.824;9.346;2022-11-21T00:17:55;9.30;68.30
1614;DHT22;800;48.824;9.346;2022-11-21T00:20:21;9.40;68.50
1614;DHT22;800;48.824;9.346;2022-11-21T00:22:47;9.40;68.50
1614;DHT22;800;48.824;9.346;2022-11-21T00:25:13;9.30;68.60
1614;DHT22;800;48.824;9.346;2022-11-21T00:27:39;9.10;69.70
1614;DHT22;800;48.824;9.346;2022-11-21T00:30:06;9.30;70.20
1614;DHT22;800;48.824;9.346;2022-11-21T00:32:33;9.30;69.80
1614;DHT22;800;48.824;9.346;2022-11-21T00:34:58;9.30;69.10
1614;DHT22;800;48.824;9.346;2022-11-21T00:37:24;9.10;69.30
1614;DHT22;800;48.824;9.346;2022-11-21T00:39:49;9.20;69.70
1614;DHT22;800;48.824;9.346;2022-11-21T00:42:15;9.40;69.50
1614;DHT22;800;48.824;9.346;2022-11-21T00:44:40;9.60;68.40
1614;DHT22;800;48.824;9.346;2022-11-21T00:47:06;9.80;67.30
1614;DHT22;800;48.824;9.346;2022-11-21T00:49:31;9.80;66.90
1614;DHT22;800;48.824;9.346;2022-11-21T00:51:57;9.90;66.20
1614;DHT22;800;48.824;9.346;2022-11-21T00:54:23;10.10;64.60
1614;DHT22;800;48.824;9.346;2022-11-21T00:56:48;10.10;64.10
1614;DHT22;800;48.824;9.346;2022-11-21T00:59:14;10.30;63.50
1614;DHT22;800;48.824;9.346;2022-11-21T01:01:40;10.20;62.60
1614;DHT22;800;48.824;9.346;2022-11-21T01:04:05;10.20;62.90
1614;DHT22;800;48.824;9.346;2022-11-21T01:06:31;10.10;62.50
1614;DHT22;800;48.824;9.346;2022-11-21T01:08:57;10.10;62.80
1614;DHT22;800;48.824;9.346;2022-11-21T01:11:22;10.10;62.50
1614;DHT22;800;48.824;9.346;2022-11-21T01:13:48;10.20;62.80
1614;DHT22;800;48.824;9.346;2022-11-21T01:16:15;10.10;63.30
1614;DHT22;800;48.824;9.346;2022-11-21T01:18:41;10.00;62.80
1614;DHT22;800;48.824;9.346;2022-11-21T01:23:37;9.80;65.00
1614;DHT22;800;48.824;9.346;2022-11-21T01:26:04;9.90;64.90
1614;DHT22;800;48.824;9.346;2022-11-21T01:28:31;10.00;63.20
1614;DHT22;800;48.824;9.346;2022-11-21T01:31:11;10.10;63.10
1614;DHT22;800;48.824;9.346;2022-11-21T01:33:38;10.10;63.10
1614;DHT22;800;48.824;9.346;2022-11-21T01:36:19;10.00;63.40
1614;DHT22;800;48.824;9.346;2022-11-21T01:38:48;9.70;65.40
1614;DHT22;800;48.824;9.346;2022-11-21T01:41:19;9.70;66.50
1614;DHT22;800;48.824;9.346;2022-11-21T01:43:45;9.70;67.20
1614;DHT22;800;48.824;9.346;2022-11-21T01:46:21;9.70;67.00
1614;DHT22;800;48.824;9.346;2022-11-21T01:51:23;9.60;67.60
1614;DHT22;800;48.824;9.346;2022-11-21T01:56:22;9.50;69.40
1614;DHT22;800;48.824;9.346;2022-11-21T01:58:50;9.50;69.30
1614;DHT22;800;48.824;9.346;2022-11-21T02:01:16;9.30;69.20
1614;DHT22;800;48.824;9.346;2022-11-21T02:03:43;9.10;70.30
1614;DHT22;800;48.824;9.346;2022-11-21T02:06:10;9.00;71.20
1614;DHT22;800;48.824;9.346;2022-11-21T02:08:36;9.20;71.60
1614;DHT22;800;48.824;9.346;2022-11-21T02:11:26;9.50;70.90
1614;DHT22;800;48.824;9.346;2022-11-21T02:13:54;9.60;69.90
1614;DHT22;800;48.824;9.346;2022-11-21T02:16:21;9.90;69.70
1614;DHT22;800;48.824;9.346;2022-11-21T02:18:47;10.10;68.00
1614;DHT22;800;48.824;9.346;2022-11-21T02:21:25;10.00;67.70
1614;DHT22;800;48.824;9.346;2022-11-21T02:24:04;10.10;67.60
1614;DHT22;800;48.824;9.346;2022-11-21T02:26:31;10.30;66.70
1614;DHT22;800;48.824;9.346;2022-11-21T02:28:57;10.50;66.40
1614;DHT22;800;48.824;9.346;2022-11-21T02:31:23;10.50;66.10
1614;DHT22;800;48.824;9.346;2022-11-21T02:33:49;10.00;65.30
1614;DHT22;800;48.824;9.346;2022-11-21T02:36:45;10.00;66.90
1614;DHT22;800;48.824;9.346;2022-11-21T02:39:33;10.20;66.10
1614;DHT22;800;48.824;9.346;2022-11-21T02:47:44;10.00;66.20
1614;DHT22;800;48.824;9.346;2022-11-21T02:50:29;9.90;67.60
1614;DHT22;800;48.824;9.346;2022-11-21T02:52:55;9.70;67.80
1614;DHT22;800;48.824;9.346;2022-11-21T02:55:22;9.80;67.90
1614;DHT22;800;48.824;9.346;2022-11-21T02:57:48;9.50;67.30
1614;DHT22;800;48.824;9.346;2022-11-21T03:00:14;9.40;68.20
1614;DHT22;800;48.824;9.346;2022-11-21T03:02:40;9.20;68.80
1614;DHT22;800;48.824;9.346;2022-11-21T03:05:07;9.40;69.30
1614;DHT22;800;48.824;9.346;2022-11-21T03:07:33;9.60;68.40
1614;DHT22;800;48.824;9.346;2022-11-21T03:09:58;9.80;68.30
1614;DHT22;800;48.824;9.346;2022-11-21T03:12:24;9.90;67.90
1614;DHT22;800;48.824;9.346;2022-11-21T03:14:50;10.00;65.90
1614;DHT22;800;48.824;9.346;2022-11-21T03:17:15;9.90;66.20
1614;DHT22;800;48.824;9.346;2022-11-21T03:19:41;10.10;65.40
1614;DHT22;800;48.824;9.346;2022-11-21T03:22:06;10.20;65.10
1614;DHT22;800;48.824;9.346;2022-11-21T03:24:32;10.40;64.90
1614;DHT22;800;48.824;9.346;2022-11-21T03:26:58;10.50;64.60
1614;DHT22;800;48.824;9.346;2022-11-21T03:29:24;10.60;63.90
1614;DHT22;800;48.824;9.346;2022-11-21T03:31:49;10.10;63.20
1614;DHT22;800;48.824;9.346;2022-11-21T03:34:15;10.20;64.30
1614;DHT22;800;48.824;9.346;2022-11-21T03:36:40;10.20;63.90
1614;DHT22;800;48.824;9.346;2022-11-21T03:39:06;10.30;63.80
1614;DHT22;800;48.824;9.346;2022-11-21T03:41:32;10.20;63.80
1614;DHT22;800;48.824;9.346;2022-11-21T03:43:59;10.40;63.80
1614;DHT22;800;48.824;9.346;2022-11-21T03:46:26;10.40;63.40
1614;DHT22;800;48.824;9.346;2022-11-21T03:48:52;10.30;63.30
1614;DHT22;800;48.824;9.346;2022-11-21T03:51:23;10.10;64.10
1614;DHT22;800;48.824;9.346;2022-11-21T03:53:49;9.90;66.20
1614;DHT22;800;48.824;9.346;2022-11-21T03:56:15;9.90;66.50
1614;DHT22;800;48.824;9.346;2022-11-21T03:58:41;9.90;66.70
1614;DHT22;800;48.824;9.346;2022-11-21T04:01:06;10.00;65.30
1614;DHT22;800;48.824;9.346;2022-11-21T04:03:32;10.30;64.80
1614;DHT22;800;48.824;9.346;2022-11-21T04:05:58;10.50;64.10
1614;DHT22;800;48.824;9.346;2022-11-21T04:08:24;10.60;63.50
1614;DHT22;800;48.824;9.346;2022-11-21T04:10:51;10.70;63.10
1614;DHT22;800;48.824;9.346;2022-11-21T04:13:17;10.90;62.60
1614;DHT22;800;48.824;9.346;2022-11-21T04:15:43;10.70;62.90
1614;DHT22;800;48.824;9.346;2022-11-21T04:18:10;10.60;63.30
1614;DHT22;800;48.824;9.346;2022-11-21T04:20:36;10.30;63.60
1614;DHT22;800;48.824;9.346;2022-11-21T04:23:02;10.50;63.40
1614;DHT22;800;48.824;9.346;2022-11-21T04:25:28;10.40;63.40
1614;DHT22;800;48.824;9.346;2022-11-21T04:27:57;10.30;63.90
1614;DHT22;800;48.824;9.346;2022-11-21T04:30:23;10.40;63.90
1614;DHT22;800;48.824;9.346;2022-11-21T04:32:55;10.30;64.10
1614;DHT22;800;48.824;9.346;2022-11-21T04:35:22;10.30;64.70
1614;DHT22;800;48.824;9.346;2022-11-21T04:37:48;10.40;65.50
1614;DHT22;800;48.824;9.346;2022-11-21T04:40:14;10.50;64.60
1614;DHT22;800;48.824;9.346;2022-11-21T04:42:44;10.60;64.00
1614;DHT22;800;48.824;9.346;2022-11-21T04:45:10;10.60;64.20
1614;DHT22;800;48.824;9.346;2022-11-21T04:47:41;10.50;63.80
1614;DHT22;800;48.824;9.346;2022-11-21T04:50:08;10.40;64.50
1614;DHT22;800;48.824;9.346;2022-11-21T04:52:34;10.20;64.70
1614;DHT22;800;48.824;9.346;2022-11-21T04:55:00;10.20;65.60
1614;DHT22;800;48.824;9.346;2022-11-21T04:57:27;10.30;65.00
1614;DHT22;800;48.824;9.346;2022-11-21T04:59:52;10.10;65.20
1614;DHT22;800;48.824;9.346;2022-11-21T05:02:18;10.00;65.80
1614;DHT22;800;48.824;9.346;2022-11-21T05:04:44;9.60;67.30
1614;DHT22;800;48.824;9.346;2022-11-21T05:07:09;9.50;68.60
1614;DHT22;800;48.824;9.346;2022-11-21T05:09:35;9.70;68.70
1614;DHT22;800;48.824;9.346;2022-11-21T05:12:00;9.80;68.50
1614;DHT22;800;48.824;9.346;2022-11-21T05:14:45;9.80;68.50
1614;DHT22;800;48.824;9.346;2022-11-21T05:17:10;9.90;68.50
1614;DHT22;800;48.824;9.346;2022-11-21T05:19:36;10.20;66.50
1614;DHT22;800;48.824;9.346;2022-11-21T05:22:01;10.40;65.50
1614;DHT22;800;48.824;9.346;2022-11-21T05:24:27;10.40;65.10
1614;DHT22;800;48.824;9.346;2022-11-21T05:26:53;10.40;65.00
1614;DHT22;800;48.824;9.346;2022-11-21T05:29:20;10.60;64.40
1614;DHT22;800;48.824;9.346;2022-11-21T05:31:45;10.70;63.90
1614;DHT22;800;48.824;9.346;2022-11-21T05:34:11;10.80;63.90
1614;DHT22;800;48.824;9.346;2022-11-21T05:36:37;10.80;63.40
1614;DHT22;800;48.824;9.346;2022-11-21T05:39:02;10.80;63.90
1614;DHT22;800;48.824;9.346;2022-11-21T05:41:28;10.80;63.50
1614;DHT22;800;48.824;9.346;2022-11-21T05:43:54;10.60;63.50
1614;DHT22;800;48.824;9.346;2022-11-21T05:46:21;10.80;63.80
1614;DHT22;800;48.824;9.346;2022-11-21T05:48:48;11.00;63.40
1614;DHT22;800;48.824;9.346;2022-11-21T05:51:15;11.10;63.40
1614;DHT22;800;48.824;9.346;2022-11-21T05:53:41;11.00;63.10
1614;DHT22;800;48.824;9.346;2022-11-21T05:56:09;11.00;63.50
1614;DHT22;800;48.824;9.346;2022-11-21T05:58:35;11.00;63.00
1614;DHT22;800;48.824;9.346;2022-11-21T06:01:01;11.10;63.00
1614;DHT22;800;48.824;9.346;2022-11-21T06:03:29;10.90;63.20
1614;DHT22;800;48.824;9.346;2022-11-21T06:06:13;11.00;63.10
1614;DHT22;800;48.824;9.346;2022-11-21T06:08:44;11.10;63.00
1614;DHT22;800;48.824;9.346;2022-11-21T06:11:12;11.00;63.00
1614;DHT22;800;48.824;9.346;2022-11-21T06:13:38;11.20;62.60
1614;DHT22;800;48.824;9.346;2022-11-21T06:16:22;11.20;62.30
1614;DHT22;800;48.824;9.346;2022-11-21T06:18:49;11.30;62.10
1614;DHT22;800;48.824;9.346;2022-11-21T06:21:23;11.40;62.20
1614;DHT22;800;48.824;9.346;2022-11-21T06:23:51;11.50;63.80
1614;DHT22;800;48.824;9.346;2022-11-21T06:26:18;11.70;63.70
1614;DHT22;800;48.824;9.346;2022-11-21T06:28:44;11.80;63.50
1614;DHT22;800;48.824;9.346;2022-11-21T06:31:21;12.10;63.70
1614;DHT22;800;48.824;9.346;2022-11-21T06:33:50;12.30;63.10
1614;DHT22;800;48.824;9.346;2022-11-21T06:36:16;12.40;61.90
1614;DHT22;800;48.824;9.346;2022-11-21T06:38:42;12.60;62.10
1614;DHT22;800;48.824;9.346;2022-11-21T06:41:13;12.70;61.10
1614;DHT22;800;48.824;9.346;2022-11-21T06:43:39;12.70;59.90
1614;DHT22;800;48.824;9.346;2022-11-21T06:46:05;12.60;59.00
1614;DHT22;800;48.824;9.346;2022-11-21T06:48:32;12.50;58.60
1614;DHT22;800;48.824;9.346;2022-11-21T06:51:03;12.30;58.70
1614;DHT22;800;48.824;9.346;2022-11-21T06:53:29;11.90;58.90
1614;DHT22;800;48.824;9.346;2022-11-21T06:55:57;11.70;59.60
1614;DHT22;800;48.824;9.346;2022-11-21T06:58:24;11.40;60.10
1614;DHT22;800;48.824;9.346;2022-11-21T07:00:49;11.20;61.10
1614;DHT22;800;48.824;9.346;2022-11-21T07:03:15;11.40;60.70
1614;DHT22;800;48.824;9.346;2022-11-21T07:05:41;11.30;60.90
1614;DHT22;800;48.824;9.346;2022-11-21T07:08:06;11.40;60.70
1614;DHT22;800;48.824;9.346;2022-11-21T07:10:32;11.50;60.50
1614;DHT22;800;48.824;9.346;2022-11-21T07:13:01;11.50;60.50
1614;DHT22;800;48.824;9.346;2022-11-21T07:15:46;11.60;60.60
1614;DHT22;800;48.824;9.346;2022-11-21T07:18:12;11.70;60.40
1614;DHT22;800;48.824;9.346;2022-11-21T07:20:38;11.80;60.10
1614;DHT22;800;48.824;9.346;2022-11-21T07:23:04;11.80;60.10
1614;DHT22;800;48.824;9.346;2022-11-21T07:25:30;11.80;59.80
1614;DHT22;800;48.824;9.346;2022-11-21T07:27:59;11.80;59.60
1614;DHT22;800;48.824;9.346;2022-11-21T07:30:25;11.90;60.30
1614;DHT22;800;48.824;9.346;2022-11-21T07:32:54;12.10;58.90
1614;DHT22;800;48.824;9.346;2022-11-21T07:35:20;12.60;58.40
1614;DHT22;800;48.824;9.346;2022-11-21T07:37:46;13.00;57.10
1614;DHT22;800;48.824;9.346;2022-11-21T07:40:12;13.20;55.90
1614;DHT22;800;48.824;9.346;2022-11-21T07:42:37;13.40;55.70
1614;DHT22;800;48.824;9.346;2022-11-21T07:45:03;13.70;55.30
1614;DHT22;800;48.824;9.346;2022-11-21T07:47:29;13.90;54.50
1614;DHT22;800;48.824;9.346;2022-11-21T07:49:54;13.90;53.70
1614;DHT22;800;48.824;9.346;2022-11-21T07:52:20;13.90;53.60
1614;DHT22;800;48.824;9.346;2022-11-21T07:54:45;13.90;53.40
1614;DHT22;800;48.824;9.346;2022-11-21T07:57:11;13.90;53.40
1614;DHT22;800;48.824;9.346;2022-11-21T07:59:36;13.60;53.80
1614;DHT22;800;48.824;9.346;2022-11-21T08:02:02;13.40;54.20
1614;DHT22;800;48.824;9.346;2022-11-21T08:04:28;13.30;54.70
1614;DHT22;800;48.824;9.346;2022-11-21T08:06:53;13.10;54.90
1614;DHT22;800;48.824;9.346;2022-11-21T08:09:19;12.90;55.40
1614;DHT22;800;48.824;9.346;2022-11-21T08:11:45;12.60;55.80
1614;DHT22;800;48.824;9.346;2022-11-21T08:14:10;12.50;56.30
1614;DHT22;800;48.824;9.346;2022-11-21T08:16:36;12.30;56.70
1614;DHT22;800;48.824;9.346;2022-11-21T08:19:02;12.20;57.00
1614;DHT22;800;48.824;9.346;2022-11-21T08:21:27;12.10;57.30
1614;DHT22;800;48.824;9.346;2022-11-21T08:23:53;12.10;57.70
1614;DHT22;800;48.824;9.346;2022-11-21T08:26:19;12.00;58.30
1614;DHT22;800;48.824;9.346;2022-11-21T08:28:45;12.00;58.30
1614;DHT22;800;48.824;9.346;2022-11-21T08:31:10;12.20;58.30
1614;DHT22;800;48.824;9.346;2022-11-21T08:33:36;12.30;58.70
1614;DHT22;800;48.824;9.346;2022-11-21T08:36:05;12.40;58.00
1614;DHT22;800;48.824;9.346;2022-11-21T08:38:31;12.30;57.80
1614;DHT22;800;48.824;9.346;2022-11-21T08:40:57;12.10;57.70
1614;DHT22;800;48.824;9.346;2022-11-21T08:43:41;12.10;58.00
1614;DHT22;800;48.824;9.346;2022-11-21T08:46:07;11.90;57.80
1614;DHT22;800;48.824;9.346;2022-11-21T08:48:32;11.90;58.00
1614;DHT22;800;48.824;9.346;2022-11-21T08:50:58;12.00;58.00
1614;DHT22;800;48.824;9.346;2022-11-21T08:53:24;12.20;58.00
1614;DHT22;800;48.824;9.346;2022-11-21T08:55:50;12.30;57.80
1614;DHT22;800;48.824;9.346;2022-11-21T08:58:16;12.40;57.50
1614;DHT22;800;48.824;9.346;2022-11-21T09:00:41;12.50;57.80
1614;DHT22;800;48.824;9.346;2022-11-21T09:03:07;12.60;57.70
1614;DHT22;800;48.824;9.346;2022-11-21T09:05:33;12.60;56.50
1614;DHT22;800;48.824;9.346;2022-11-21T09:07:58;12.70;56.40
1614;DHT22;800;48.824;9.346;2022-11-21T09:10:25;12.80;56.00
1614;DHT22;800;48.824;9.346;2022-11-21T09:12:51;12.90;56.30
1614;DHT22;800;48.824;9.346;2022-11-21T09:15:17;12.60;57.40
1614;DHT22;800;48.824;9.346;2022-11-21T09:18:03;12.70;58.20
1614;DHT22;800;48.824;9.346;2022-11-21T09:20:30;12.80;57.80
1614;DHT22;800;48.824;9.346;2022-11-21T09:22:56;13.00;57.50
1614;DHT22;800;48.824;9.346;2022-11-21T09:25:22;13.10;57.10
1614;DHT22;800;48.824;9.346;2022-11-21T09:27:47;13.20;57.00
1614;DHT22;800;48.824;9.346;2022-11-21T09:30:13;13.50;57.10
1614;DHT22;800;48.824;9.346;2022-11-21T09:32:39;13.70;56.30
1614;DHT22;800;48.824;9.346;2022-11-21T09:35:05;13.80;55.70
1614;DHT22;800;48.824;9.346;2022-11-21T09:37:36;14.00;54.60
1614;DHT22;800;48.824;9.346;2022-11-21T09:40:02;14.10;54.40
1614;DHT22;800;48.824;9.346;2022-11-21T09:45:36;14.30;53.40
1614;DHT22;800;48.824;9.346;2022-11-21T09:48:17;14.30;53.00
1614;DHT22;800;48.824;9.346;2022-11-21T09:50:48;14.10;53.20
1614;DHT22;800;48.824;9.346;2022-11-21T09:53:21;14.00;53.50
1614;DHT22;800;48.824;9.346;2022-11-21T09:55:57;14.00;53.80
1614;DHT22;800;48.824;9.346;2022-11-21T10:00:59;14.10;54.40
1614;DHT22;800;48.824;9.346;2022-11-21T10:03:28;14.00;54.30
1614;DHT22;800;48.824;9.346;2022-11-21T10:06:00;14.10;54.00
1614;DHT22;800;48.824;9.346;2022-11-21T10:17:08;14.30;53.30
1614;DHT22;800;48.824;9.346;2022-11-21T10:25:23;15.10;51.50
1614;DHT22;800;48.824;9.346;2022-11-21T10:28:00;15.10;51.00
1614;DHT22;800;48.824;9.346;2022-11-21T10:30:26;15.20;51.60
1614;DHT22;800;48.824;9.346;2022-11-21T10:32:57;15.50;51.30
1614;DHT22;800;48.824;9.346;2022-11-21T10:35:25;15.70;50.00
1614;DHT22;800;48.824;9.346;2022-11-21T10:37:59;15.70;48.60
1614;DHT22;800;48.824;9.346;2022-11-21T10:40:41;15.60;48.40
1614;DHT22;800;48.824;9.346;2022-11-21T10:43:34;15.30;48.80
1614;DHT22;800;48.824;9.346;2022-11-21T10:46:19;15.10;48.80
1614;DHT22;800;48.824;9.346;2022-11-21T10:49:03;15.10;49.50
1614;DHT22;800;48.824;9.346;2022-11-21T10:52:06;15.30;50.10
1614;DHT22;800;48.824;9.346;2022-11-21T10:57:27;15.40;48.80
1614;DHT22;800;48.824;9.346;2022-11-21T11:02:37;15.20;48.50
1614;DHT22;800;48.824;9.346;2022-11-21T11:07:41;15.20;48.60
1614;DHT22;800;48.824;9.346;2022-11-21T11:10:23;15.30;49.70
1614;DHT22;800;48.824;9.346;2022-11-21T11:12:49;15.20;48.50
1614;DHT22;800;48.824;9.346;2022-11-21T11:15:33;15.20;48.20
1614;DHT22;800;48.824;9.346;2022-11-21T11:18:02;15.20;47.80
1614;DHT22;800;48.824;9.346;2022-11-21T11:20:39;15.00;47.90
1614;DHT22;800;48.824;9.346;2022-11-21T11:25:57;14.50;48.30
1614;DHT22;800;48.824;9.346;2022-11-21T11:28:25;14.30;51.40
1614;DHT22;800;48.824;9.346;2022-11-21T11:30:52;14.50;54.20
1614;DHT22;800;48.824;9.346;2022-11-21T11:33:36;14.80;54.60
1614;DHT22;800;48.824;9.346;2022-11-21T11:36:14;15.00;55.00
1614;DHT22;800;48.824;9.346;2022-11-21T11:38:52;15.20;53.50
1614;DHT22;800;48.824;9.346;2022-11-21T11:47:54;15.10;53.50
1614;DHT22;800;48.824;9.346;2022-11-21T11:50:30;15.30;53.70
1614;DHT22;800;48.824;9.346;2022-11-21T11:53:10;15.40;53.80
1614;DHT22;800;48.824;9.346;2022-11-21T12:01:22;15.60;52.80
1614;DHT22;800;48.824;9.346;2022-11-21T12:04:09;15.70;52.80
1614;DHT22;800;48.824;9.346;2022-11-21T12:06:56;15.70;52.40
1614;DHT22;800;48.824;9.346;2022-11-21T12:09:44;15.70;51.70
1614;DHT22;800;48.824;9.346;2022-11-21T12:12:17;15.70;52.10
1614;DHT22;800;48.824;9.346;2022-11-21T12:18:31;15.90;50.90
1614;DHT22;800;48.824;9.346;2022-11-21T12:21:13;16.00;50.70
1614;DHT22;800;48.824;9.346;2022-11-21T12:23:49;16.10;50.30
1614;DHT22;800;48.824;9.346;2022-11-21T12:38:21;16.00;45.10
1614;DHT22;800;48.824;9.346;2022-11-21T12:46:42;14.90;45.80
1614;DHT22;800;48.824;9.346;2022-11-21T12:52:32;14.90;46.20
1614;DHT22;800;48.824;9.346;2022-11-21T12:55:35;15.10;46.00
1614;DHT22;800;48.824;9.346;2022-11-21T13:03:27;15.30;46.50
1614;DHT22;800;48.824;9.346;2022-11-21T13:05:57;15.40;46.70
1614;DHT22;800;48.824;9.346;2022-11-21T13:08:27;15.50;45.90
1614;DHT22;800;48.824;9.346;2022-11-21T13:13:49;15.80;45.00
1614;DHT22;800;48.824;9.346;2022-11-21T13:16:25;15.90;44.30
1614;DHT22;800;48.824;9.346;2022-11-21T13:21:51;15.80;44.60
1614;DHT22;800;48.824;9.346;2022-11-21T13:27:36;16.00;44.80
1614;DHT22;800;48.824;9.346;2022-11-21T13:32:45;16.20;43.80
1614;DHT22;800;48.824;9.346;2022-11-21T13:38:04;16.30;43.00
1614;DHT22;800;48.824;9.346;2022-11-21T13:40:38;16.40;43.00
1614;DHT22;800;48.824;9.346;2022-11-21T13:45:46;16.40;43.50
1614;DHT22;800;48.824;9.346;2022-11-21T13:49:06;16.30;43.50
1614;DHT22;800;48.824;9.346;2022-11-21T13:51:48;16.40;43.40
1614;DHT22;800;48.824;9.346;2022-11-21T13:57:14;16.40;43.40
1614;DHT22;800;48.824;9.346;2022-11-21T14:07:51;16.10;44.00
1614;DHT22;800;48.824;9.346;2022-11-21T14:12:50;16.30;44.70
1614;DHT22;800;48.824;9.346;2022-11-21T14:17:56;16.40;43.90
1614;DHT22;800;48.824;9.346;2022-11-21T14:20:45;16.40;44.20
1614;DHT22;800;48.824;9.346;2022-11-21T14:23:16;16.50;44.30
1614;DHT22;800;48.824;9.346;2022-11-21T14:28:25;16.40;44.00
1614;DHT22;800;48.824;9.346;2022-11-21T14:33:26;16.40;44.50
1614;DHT22;800;48.824;9.346;2022-11-21T14:36:25;16.40;44.70
1614;DHT22;800;48.824;9.346;2022-11-21T14:38:53;16.40;45.30
1614;DHT22;800;48.824;9.346;2022-11-21T14:46:37;16.20;46.10
1614;DHT22;800;48.824;9.346;2022-11-21T14:51:44;16.10;46.10
1614;DHT22;800;48.824;9.346;2022-11-21T14:54:17;16.10;46.40
1614;DHT22;800;48.824;9.346;2022-11-21T14:56:47;16.00;46.50
1614;DHT22;800;48.824;9.346;2022-11-21T14:59:28;15.90;45.80
1614;DHT22;800;48.824;9.346;2022-11-21T15:02:00;15.70;45.90
1614;DHT22;800;48.824;9.346;2022-11-21T15:04:32;15.70;46.90
1614;DHT22;800;48.824;9.346;2022-11-21T15:06:59;15.50;45.80
1614;DHT22;800;48.824;9.346;2022-11-21T15:09:25;15.50;46.00
1614;DHT22;800;48.824;9.346;2022-11-21T15:12:00;15.50;46.40
1614;DHT22;800;48.824;9.346;2022-11-21T15:14:59;15.40;46.60
1614;DHT22;800;48.824;9.346;2022-11-21T15:17:26;15.40;47.10
1614;DHT22;800;48.824;9.346;2022-11-21T15:20:22;15.20;47.10
1614;DHT22;800;48.824;9.346;2022-11-21T15:22:48;15.00;47.80
1614;DHT22;800;48.824;9.346;2022-11-21T15:25:20;14.70;48.50
1614;DHT22;800;48.824;9.346;2022-11-21T15:30:27;14.30;49.70
1614;DHT22;800;48.824;9.346;2022-11-21T15:37:53;14.60;49.50
1614;DHT22;800;48.824;9.346;2022-11-21T15:40:19;14.20;50.20
1614;DHT22;800;48.824;9.346;2022-11-21T15:42:44;13.70;51.30
1614;DHT22;800;48.824;9.346;2022-11-21T15:47:39;13.20;53.10
1614;DHT22;800;48.824;9.346;2022-11-21T15:50:05;13.10;53.20
1614;DHT22;800;48.824;9.346;2022-11-21T15:52:30;13.10;53.50
1614;DHT22;800;48.824;9.346;2022-11-21T15:54:56;13.20;53.60
1614;DHT22;800;48.824;9.346;2022-11-21T15:57:21;13.20;53.50
1614;DHT22;800;48.824;9.346;2022-11-21T15:59:47;13.10;53.60
1614;DHT22;800;48.824;9.346;2022-11-21T16:02:13;13.10;53.90
1614;DHT22;800;48.824;9.346;2022-11-21T16:04:40;12.80;54.00
1614;DHT22;800;48.824;9.346;2022-11-21T16:07:05;12.60;54.60
1614;DHT22;800;48.824;9.346;2022-11-21T16:09:31;12.50;54.60
1614;DHT22;800;48.824;9.346;2022-11-21T16:11:57;12.60;54.80
1614;DHT22;800;48.824;9.346;2022-11-21T16:14:22;12.70;54.50
1614;DHT22;800;48.824;9.346;2022-11-21T16:16:48;12.50;54.50
1614;DHT22;800;48.824;9.346;2022-11-21T16:19:14;12.40;55.40
1614;DHT22;800;48.824;9.346;2022-11-21T16:21:40;12.10;56.20
1614;DHT22;800;48.824;9.346;2022-11-21T16:24:06;11.70;57.30
1614;DHT22;800;48.824;9.346;2022-11-21T16:26:32;11.50;58.20
1614;DHT22;800;48.824;9.346;2022-11-21T16:28:58;11.50;58.30
1614;DHT22;800;48.824;9.346;2022-11-21T16:31:27;11.60;58.10
1614;DHT22;800;48.824;9.346;2022-11-21T16:33:53;11.60;58.10
1614;DHT22;800;48.824;9.346;2022-11-21T16:36:24;11.60;58.20
1614;DHT22;800;48.824;9.346;2022-11-21T16:38:51;11.50;58.30
1614;DHT22;800;48.824;9.346;2022-11-21T16:41:18;11.30;58.40
1614;DHT22;800;48.824;9.346;2022-11-21T16:43:51;11.10;59.30
1614;DHT22;800;48.824;9.346;2022-11-21T16:46:18;11.20;59.40
1614;DHT22;800;48.824;9.346;2022-11-21T16:48:47;11.30;59.20
1614;DHT22;800;48.824;9.346;2022-11-21T16:51:20;11.30;59.00
1614;DHT22;800;48.824;9.346;2022-11-21T16:53:48;11.10;59.20
1614;DHT22;800;48.824;9.346;2022-11-21T16:56:14;10.90;60.00
1614;DHT22;800;48.824;9.346;2022-11-21T16:58:41;10.90;60.50
1614;DHT22;800;48.824;9.346;2022-11-21T17:01:14;10.90;60.20
1614;DHT22;800;48.824;9.346;2022-11-21T17:03:41;10.80;60.40
1614;DHT22;800;48.824;9.346;2022-11-21T17:06:08;11.00;60.10
1614;DHT22;800;48.824;9.346;2022-11-21T17:08:35;10.90;59.60
1614;DHT22;800;48.824;9.346;2022-11-21T17:11:14;10.90;59.60
1614;DHT22;800;48.824;9.346;2022-11-21T17:13:41;10.80;59.60
1614;DHT22;800;48.824;9.346;2022-11-21T17:16:08;10.40;59.90
1614;DHT22;800;48.824;9.346;2022-11-21T17:18:33;10.20;61.00
1614;DHT22;800;48.824;9.346;2022-11-21T17:21:03;10.00;62.00
1614;DHT22;800;48.824;9.346;2022-11-21T17:23:30;10.00;62.20
1614;DHT22;800;48.824;9.346;2022-11-21T17:26:06;10.00;62.30
1614;DHT22;800;48.824;9.346;2022-11-21T17:28:33;9.80;64.20
1614;DHT22;800;48.824;9.346;2022-11-21T17:31:08;9.80;64.10
1614;DHT22;800;48.824;9.346;2022-11-21T17:33:35;9.60;64.80
1614;DHT22;800;48.824;9.346;2022-11-21T17:36:02;9.60;65.40
1614;DHT22;800;48.824;9.346;2022-11-21T17:38:28;9.60;65.40
1614;DHT22;800;48.824;9.346;2022-11-21T17:41:05;9.70;65.60
1614;DHT22;800;48.824;9.346;2022-11-21T17:43:31;9.60;65.40
1614;DHT22;800;48.824;9.346;2022-11-21T17:46:17;9.40;65.70
1614;DHT22;800;48.824;9.346;2022-11-21T17:48:44;9.50;65.50
1614;DHT22;800;48.824;9.346;2022-11-21T17:51:14;9.60;65.10
1614;DHT22;800;48.824;9.346;2022-11-21T17:53:45;9.80;64.60
1614;DHT22;800;48.824;9.346;2022-11-21T17:56:16;9.90;63.90
1614;DHT22;800;48.824;9.346;2022-11-21T17:58:42;9.90;63.50
1614;DHT22;800;48.824;9.346;2022-11-21T18:01:08;9.70;63.30
1614;DHT22;800;48.824;9.346;2022-11-21T18:03:38;9.60;63.70
1614;DHT22;800;48.824;9.346;2022-11-21T18:06:09;9.70;64.00
1614;DHT22;800;48.824;9.346;2022-11-21T18:08:37;9.90;63.30
1614;DHT22;800;48.824;9.346;2022-11-21T18:11:04;10.30;61.00
1614;DHT22;800;48.824;9.346;2022-11-21T18:13:30;10.60;59.80
1614;DHT22;800;48.824;9.346;2022-11-21T18:16:05;10.70;59.10
1614;DHT22;800;48.824;9.346;2022-11-21T18:18:33;11.00;58.70
1614;DHT22;800;48.824;9.346;2022-11-21T18:21:06;11.00;58.10
1614;DHT22;800;48.824;9.346;2022-11-21T18:23:32;11.00;58.00
1614;DHT22;800;48.824;9.346;2022-11-21T18:26:10;10.90;58.10
1614;DHT22;800;48.824;9.346;2022-11-21T18:28:36;10.90;58.20
1614;DHT22;800;48.824;9.346;2022-11-21T18:31:23;10.60;58.10
1614;DHT22;800;48.824;9.346;2022-11-21T18:33:54;10.70;58.60
1614;DHT22;800;48.824;9.346;2022-11-21T18:36:21;10.70;58.70
1614;DHT22;800;48.824;9.346;2022-11-21T18:38:48;10.70;58.50
1614;DHT22;800;48.824;9.346;2022-11-21T18:41:20;10.70;58.70
1614;DHT22;800;48.824;9.346;2022-11-21T18:43:56;10.50;58.80
1614;DHT22;800;48.824;9.346;2022-11-21T18:46:25;10.40;59.20
1614;DHT22;800;48.824;9.346;2022-11-21T18:48:51;10.60;59.20
1614;DHT22;800;48.824;9.346;2022-11-21T18:51:23;10.40;58.90
1614;DHT22;800;48.824;9.346;2022-11-21T18:53:50;10.60;59.00
1614;DHT22;800;48.824;9.346;2022-11-21T18:56:16;10.60;58.60
1614;DHT22;800;48.824;9.346;2022-11-21T18:58:46;10.60;58.20